Flight Track Log - Related Links

Times and Time Zones

All times are in EST time to prevent confusion due to time zone crossing. See the AWI3989 flight status page for this flight to view local times or setup timezone preferences in your user account.

Time Position Orientation Groundspeed Altitude Reporting Facility
EST Latitude Longitude Course Direction KTS MPH feet Rate Location/Type
Thu 08:22:08 AM 42.3500 -71.0167 144° Southeast 159 183 800  Level KA90
Thu 08:22:50 AM 42.3333 -71.0000 144° Southeast 180 207 2,700 2,688 Climbing KA90
Thu 08:23:44 AM 42.3167 -70.9333 109° East 246 283 5,100 2,632 Climbing KA90
Thu 08:24:44 AM 42.3333 -70.8333 77° East 295 339 7,700 2,480 Climbing KA90
Thu 08:26:14 AM 42.4114 -70.7192 47° Northeast 316 364 11,300 2,026 Climbing Boston Center
Thu 08:27:15 AM 42.4978 -70.7433 348° North 326 375 12,800 1,770 Climbing Boston Center
Thu 08:28:16 AM 42.5600 -70.8231 317° Northwest 318 366 14,900 1,869 Climbing Boston Center
Thu 08:29:17 AM 42.6117 -70.9233 305° West 313 360 16,600 1,770 Climbing Boston Center
Thu 08:30:18 AM 42.6653 -71.0336 303° West 324 373 18,500 1,623 Climbing Boston Center
Thu 08:31:19 AM 42.7086 -71.1253 303° West 325 374 19,900 1,426 Climbing Boston Center
Thu 08:32:20 AM 42.7597 -71.2303 304° West 333 383 21,400 1,328 Climbing Boston Center
Thu 08:33:21 AM 42.7861 -71.3450 287° West 322 371 22,600 1,082 Climbing Boston Center
Thu 08:34:22 AM 42.7992 -71.4619 279° West 314 361 23,600 984 Climbing Boston Center
Thu 08:35:23 AM 42.8122 -71.5994 277° West 323 372 24,600 836 Climbing Boston Center
Thu 08:36:24 AM 42.8244 -71.7231 278° West 330 380 25,300 689 Climbing Boston Center
Thu 08:37:25 AM 42.8367 -71.8467 278° West 331 381 26,000 344 Climbing Boston Center
Thu 08:38:26 AM 42.8481 -71.9750 277° West 342 394 26,000  Level Boston Center
Thu 08:39:26 AM 42.8594 -72.1078 277° West 353 406 26,000  Level Boston Center
Thu 08:40:27 AM 42.8722 -72.2442 277° West 363 418 26,000  Level Boston Center
Thu 08:41:28 AM 42.8861 -72.3917 277° West 366 421 26,000  Level Boston Center
Thu 08:42:29 AM 42.8972 -72.5311 276° West 370 426 26,000  Level Boston Center
Thu 08:43:30 AM 42.9106 -72.6722 277° West 369 425 26,000  Level Boston Center
Thu 08:44:31 AM 42.9225 -72.8117 277° West 370 426 26,000  Level Boston Center
Thu 08:45:32 AM 42.9347 -72.9511 277° West 370 426 26,000  Level Boston Center
Thu 08:46:33 AM 42.9467 -73.1000 276° West 372 428 26,000  Level Boston Center
Thu 08:47:34 AM 42.9581 -73.2381 276° West 369 425 26,000  Level Boston Center
Thu 08:48:35 AM 42.9708 -73.3903 277° West 368 423 26,000  Level Boston Center
Thu 08:49:36 AM 42.9817 -73.5281 276° West 367 422 26,000  Level Boston Center
Thu 08:50:36 AM 42.9919 -73.6664 276° West 366 421 26,000  Level Boston Center
Thu 08:51:37 AM 43.0031 -73.8042 276° West 366 421 26,000  Level Boston Center
Thu 08:52:38 AM 43.0133 -73.9433 276° West 367 422 26,000  Level Boston Center
Thu 08:53:39 AM 43.0239 -74.0808 276° West 366 421 26,000  Level Boston Center
Thu 08:54:40 AM 43.0339 -74.2119 276° West 351 404 26,000  Level Boston Center
Thu 08:55:41 AM 43.0428 -74.3394 275° West 340 391 26,000  Level Boston Center
Thu 08:56:42 AM 43.0517 -74.4653 276° West 333 383 26,000  Level Boston Center
Thu 08:57:42 AM 43.0603 -74.5906 275° West 332 382 26,000  Level Boston Center
Thu 08:58:43 AM 43.0681 -74.7142 275° West 328 377 26,000  Level Boston Center
Thu 08:59:44 AM 43.0781 -74.8378 276° West 326 375 26,000  Level Boston Center
Thu 09:00:45 AM 43.0858 -74.9597 275° West 323 372 26,000  Level Boston Center
Thu 09:01:46 AM 43.0944 -75.0828 276° West 323 372 26,000  Level Boston Center
Thu 09:02:47 AM 43.1028 -75.2039 275° West 318 366 26,000  Level Boston Center
Thu 09:03:48 AM 43.1103 -75.3244 275° West 316 364 26,000  Level Boston Center
Thu 09:04:49 AM 43.1172 -75.4456 275° West 316 364 26,000  Level Boston Center
Thu 09:05:50 AM 43.1242 -75.5672 275° West 319 367 26,000  Level Boston Center
Thu 09:06:51 AM 43.1314 -75.6875 275° West 316 364 26,000 -99 Level Boston Center
Thu 09:07:51 AM 43.1400 -75.8333 275° West 319 367 25,800 -893 Descending Boston Center
Thu 09:08:52 AM 43.1467 -75.9567 274° West 323 372 24,200 -1,525 Descending Boston Center
Thu 09:09:53 AM 43.1544 -76.0794 275° West 324 373 22,700 -1,426 Descending Boston Center
Thu 09:10:54 AM 43.1603 -76.2011 274° West 322 371 21,300 -1,475 Descending Boston Center
Thu 09:11:55 AM 43.1589 -76.3247 269° West 325 374 19,700 -1,279 Descending Boston Center
Thu 09:12:56 AM 43.1556 -76.4483 268° West 326 375 18,700 -1,442 Descending Boston Center
Thu 09:13:39 AM 43.1547 -76.5361 269° West 305 351 17,200 -1,735 Descending Cleveland Center
Thu 09:14:19 AM 43.1519 -76.6025 267° West 289 333 16,300 -1,519 Descending Cleveland Center
Thu 09:14:58 AM 43.1489 -76.6764 267° West 269 310 15,200 -1,645 Descending Cleveland Center
Thu 09:15:21 AM 43.1483 -76.7144 269° West 276 318 14,600 -1,556 Descending Cleveland Center
Thu 09:15:52 AM 43.1464 -76.7739 267° West 294 338 13,800 -1,452 Descending Cleveland Center
Thu 09:16:23 AM 43.1453 -76.8264 268° West 288 331 13,100 -1,475 Descending Cleveland Center
Thu 09:16:53 AM 43.1439 -76.8864 268° West 296 341 12,300 -1,452 Descending Cleveland Center
Thu 09:17:25 AM 43.1431 -76.9314 269° West 277 319 11,600 -1,600 Descending Cleveland Center
Thu 09:17:53 AM 43.1506 -76.9778 283° West 229 264 10,700 -2,032 Descending Cleveland Center
Thu 09:18:27 AM 43.1619 -77.0169 292° West 241 277 9,500 -2,618 Descending Cleveland Center
Thu 09:18:48 AM 43.1714 -77.0583 287° West 242 278 8,300 -2,226 Descending Cleveland Center
Thu 09:19:29 AM 43.1850 -77.1053 292° West 242 278 7,200 -1,864 Descending Cleveland Center
Thu 09:20:31 AM 43.2083 -77.1897 291° West 242 278 5,100 -2,233 Descending Cleveland Center
Thu 09:20:55 AM 43.2203 -77.2419 287° West 233 268 4,000 -1,574 Descending Cleveland Center
Thu 09:21:32 AM 43.2333 -77.2889 291° West 236 272 3,500 -968 Descending Cleveland Center
Thu 09:21:57 AM 43.2431 -77.3231 291° West 231 266 3,000 -968 Descending Cleveland Center
Thu 09:22:34 AM 43.2561 -77.3800 287° West 233 268 2,500 -508 Descending Cleveland Center
Thu 09:22:56 AM 43.2628 -77.4094 287° West 237 273 2,500  Level Cleveland Center
Thu 09:23:36 AM 43.2761 -77.4561 291° West 233 268 2,500  Level Cleveland Center
Thu 09:23:51 AM 43.2819 -77.4842 286° West 227 261 2,500  Level Cleveland Center
Thu 09:24:52 AM 43.2692 -77.5447 254° West 158 182 2,500  Level Cleveland Center
Thu 09:25:52 AM 43.2322 -77.5814 216° Southwest 164 189 2,500  Level Cleveland Center
Thu 09:26:42 AM 43.2081 -77.6036 214° Southwest 171 197 2,500 -98 Level Cleveland Center
Thu 09:26:53 AM 43.1936 -77.6147 209° Southwest 168 193 2,400 -774 Descending Cleveland Center
Thu 09:27:44 AM 43.1661 -77.6386 212° Southwest 160 184 1,700 -800 Descending Cleveland Center
Thu 09:27:53 AM 43.1622 -77.6411 205° Southwest 119 137 1,600 -787 Descending Cleveland Center
Thu 09:28:45 AM 43.1386 -77.6617 212° Southwest 134 154 900 -806 Descending Cleveland Center
Thu 09:29:00 AM 43.1283 -77.6700 211° Southwest 127 146 700 -290 Descending Cleveland Center
Thu 09:29:47 AM 43.1106 -77.6839 210° Southwest 130 150 600 -128 Descending Cleveland Center

Login

Don't have an account? Register now (free) for customized features, flight alerts, and more!